Аэропорт: Алыкель. Норильск

ICAO: UOOO

METAR:
2021-10-23 01:00:00
UOOO 230100Z 05007MPS 1300 1200NE R01/1600N SN DRSN OVC014 M05/M05 Q0987 R01/450545 NOSIG RMK QFE726/0968
METAR:
2021-10-22 23:50:00
TAF AMD UOOO 222350Z 2300/2400 04005G10MPS 1300 SN DRSN OVC011 TEMPO 2300/2306 2500 -SN DRSN OVC016 BECMG 2303/2305 13003G08MPS BECMG 2306/2308 5000 -SN OVC020 BECMG 2310/2312 18005G10MPS BECMG 2320/2322 12003G08MPS